sensor_id;sensor_type;location;lat;lon;timestamp;temperature;humidity
17774;DHT22;9011;33.236;-97.118;2023-06-26T00:01:12;39.80;99.90
17774;DHT22;9011;33.236;-97.118;2023-06-26T00:03:40;39.60;99.90
17774;DHT22;9011;33.236;-97.118;2023-06-26T00:06:08;39.60;99.90
17774;DHT22;9011;33.236;-97.118;2023-06-26T00:08:37;39.40;99.90
17774;DHT22;9011;33.236;-97.118;2023-06-26T00:11:05;39.00;99.90
17774;DHT22;9011;33.236;-97.118;2023-06-26T00:13:35;39.10;99.90
17774;DHT22;9011;33.236;-97.118;2023-06-26T00:16:04;38.90;99.90
17774;DHT22;9011;33.236;-97.118;2023-06-26T00:18:32;38.80;99.90
17774;DHT22;9011;33.236;-97.118;2023-06-26T00:21:01;38.80;99.90
17774;DHT22;9011;33.236;-97.118;2023-06-26T00:23:29;38.60;99.90
17774;DHT22;9011;33.236;-97.118;2023-06-26T00:25:59;38.40;99.90
17774;DHT22;9011;33.236;-97.118;2023-06-26T00:28:27;38.20;99.90
17774;DHT22;9011;33.236;-97.118;2023-06-26T00:30:57;38.20;99.90
17774;DHT22;9011;33.236;-97.118;2023-06-26T00:33:26;37.90;99.90
17774;DHT22;9011;33.236;-97.118;2023-06-26T00:35:54;37.80;99.90
17774;DHT22;9011;33.236;-97.118;2023-06-26T00:38:22;37.70;99.90
17774;DHT22;9011;33.236;-97.118;2023-06-26T00:40:51;37.80;99.90
17774;DHT22;9011;33.236;-97.118;2023-06-26T00:43:21;37.60;99.90
17774;DHT22;9011;33.236;-97.118;2023-06-26T00:45:49;37.40;99.90
17774;DHT22;9011;33.236;-97.118;2023-06-26T00:48:19;37.40;99.90
17774;DHT22;9011;33.236;-97.118;2023-06-26T00:50:48;37.30;99.90
17774;DHT22;9011;33.236;-97.118;2023-06-26T00:53:16;37.30;99.90
17774;DHT22;9011;33.236;-97.118;2023-06-26T00:55:45;37.10;99.90
17774;DHT22;9011;33.236;-97.118;2023-06-26T00:58:13;37.10;99.90
17774;DHT22;9011;33.236;-97.118;2023-06-26T01:00:42;37.00;99.90
17774;DHT22;9011;33.236;-97.118;2023-06-26T01:03:12;36.90;99.90
17774;DHT22;9011;33.236;-97.118;2023-06-26T01:05:42;36.80;99.90
17774;DHT22;9011;33.236;-97.118;2023-06-26T01:08:12;36.60;99.90
17774;DHT22;9011;33.236;-97.118;2023-06-26T01:10:41;36.60;99.90
17774;DHT22;9011;33.236;-97.118;2023-06-26T01:13:10;36.50;99.90
17774;DHT22;9011;33.236;-97.118;2023-06-26T01:15:40;36.40;99.90
17774;DHT22;9011;33.236;-97.118;2023-06-26T01:18:08;36.30;99.90
17774;DHT22;9011;33.236;-97.118;2023-06-26T01:20:38;36.30;99.90
17774;DHT22;9011;33.236;-97.118;2023-06-26T01:23:16;36.20;99.90
17774;DHT22;9011;33.236;-97.118;2023-06-26T01:26:05;36.20;99.90
17774;DHT22;9011;33.236;-97.118;2023-06-26T01:28:35;36.10;99.90
17774;DHT22;9011;33.236;-97.118;2023-06-26T01:31:06;36.00;99.90
17774;DHT22;9011;33.236;-97.118;2023-06-26T01:33:35;35.90;99.90
17774;DHT22;9011;33.236;-97.118;2023-06-26T01:36:05;35.60;99.90
17774;DHT22;9011;33.236;-97.118;2023-06-26T01:38:33;35.60;99.90
17774;DHT22;9011;33.236;-97.118;2023-06-26T01:41:03;35.50;99.90
17774;DHT22;9011;33.236;-97.118;2023-06-26T01:43:39;35.50;99.90
17774;DHT22;9011;33.236;-97.118;2023-06-26T01:46:14;35.50;99.90
17774;DHT22;9011;33.236;-97.118;2023-06-26T01:48:49;35.40;99.90
17774;DHT22;9011;33.236;-97.118;2023-06-26T01:51:26;35.40;99.90
17774;DHT22;9011;33.236;-97.118;2023-06-26T01:53:55;35.30;99.90
17774;DHT22;9011;33.236;-97.118;2023-06-26T01:56:25;35.30;99.90
17774;DHT22;9011;33.236;-97.118;2023-06-26T01:58:57;35.10;99.90
17774;DHT22;9011;33.236;-97.118;2023-06-26T02:01:25;35.10;99.90
17774;DHT22;9011;33.236;-97.118;2023-06-26T02:03:54;35.00;99.90
17774;DHT22;9011;33.236;-97.118;2023-06-26T02:06:22;35.00;99.90
17774;DHT22;9011;33.236;-97.118;2023-06-26T02:08:51;34.90;99.90
17774;DHT22;9011;33.236;-97.118;2023-06-26T02:11:22;34.80;99.90
17774;DHT22;9011;33.236;-97.118;2023-06-26T02:13:51;34.70;99.90
17774;DHT22;9011;33.236;-97.118;2023-06-26T02:16:21;34.60;99.90
17774;DHT22;9011;33.236;-97.118;2023-06-26T02:18:49;34.50;99.90
17774;DHT22;9011;33.236;-97.118;2023-06-26T02:21:18;34.50;99.90
17774;DHT22;9011;33.236;-97.118;2023-06-26T02:23:46;34.50;99.90
17774;DHT22;9011;33.236;-97.118;2023-06-26T02:26:14;34.40;99.90
17774;DHT22;9011;33.236;-97.118;2023-06-26T02:28:43;34.40;99.90
17774;DHT22;9011;33.236;-97.118;2023-06-26T02:31:11;34.40;99.90
17774;DHT22;9011;33.236;-97.118;2023-06-26T02:33:41;34.30;99.90
17774;DHT22;9011;33.236;-97.118;2023-06-26T02:36:11;34.30;99.90
17774;DHT22;9011;33.236;-97.118;2023-06-26T02:38:40;34.20;99.90
17774;DHT22;9011;33.236;-97.118;2023-06-26T02:41:08;34.10;99.90
17774;DHT22;9011;33.236;-97.118;2023-06-26T02:43:36;33.90;99.90
17774;DHT22;9011;33.236;-97.118;2023-06-26T02:46:05;33.90;99.90
17774;DHT22;9011;33.236;-97.118;2023-06-26T02:48:33;33.90;99.90
17774;DHT22;9011;33.236;-97.118;2023-06-26T02:51:03;33.90;99.90
17774;DHT22;9011;33.236;-97.118;2023-06-26T02:53:31;33.80;99.90
17774;DHT22;9011;33.236;-97.118;2023-06-26T02:56:00;33.70;99.90
17774;DHT22;9011;33.236;-97.118;2023-06-26T02:58:28;33.60;99.90
17774;DHT22;9011;33.236;-97.118;2023-06-26T03:00:57;33.60;99.90
17774;DHT22;9011;33.236;-97.118;2023-06-26T03:03:25;33.50;99.90
17774;DHT22;9011;33.236;-97.118;2023-06-26T03:05:53;33.60;99.90
17774;DHT22;9011;33.236;-97.118;2023-06-26T03:08:23;33.50;99.90
17774;DHT22;9011;33.236;-97.118;2023-06-26T03:10:52;33.40;99.90
17774;DHT22;9011;33.236;-97.118;2023-06-26T03:13:20;33.30;99.90
17774;DHT22;9011;33.236;-97.118;2023-06-26T03:15:48;33.30;99.90
17774;DHT22;9011;33.236;-97.118;2023-06-26T03:18:20;33.20;99.90
17774;DHT22;9011;33.236;-97.118;2023-06-26T03:20:48;33.10;99.90
17774;DHT22;9011;33.236;-97.118;2023-06-26T03:23:17;33.10;99.90
17774;DHT22;9011;33.236;-97.118;2023-06-26T03:25:47;33.10;99.90
17774;DHT22;9011;33.236;-97.118;2023-06-26T03:28:16;32.90;99.90
17774;DHT22;9011;33.236;-97.118;2023-06-26T03:30:45;32.90;99.90
17774;DHT22;9011;33.236;-97.118;2023-06-26T03:33:14;32.90;99.90
17774;DHT22;9011;33.236;-97.118;2023-06-26T03:35:42;32.90;99.90
17774;DHT22;9011;33.236;-97.118;2023-06-26T03:38:10;32.90;99.90
17774;DHT22;9011;33.236;-97.118;2023-06-26T03:40:39;32.80;99.90
17774;DHT22;9011;33.236;-97.118;2023-06-26T03:43:09;32.70;99.90
17774;DHT22;9011;33.236;-97.118;2023-06-26T03:45:37;32.70;99.90
17774;DHT22;9011;33.236;-97.118;2023-06-26T03:48:06;32.70;99.90
17774;DHT22;9011;33.236;-97.118;2023-06-26T03:50:34;32.60;99.90
17774;DHT22;9011;33.236;-97.118;2023-06-26T03:53:03;32.60;99.90
17774;DHT22;9011;33.236;-97.118;2023-06-26T03:55:31;32.60;99.90
17774;DHT22;9011;33.236;-97.118;2023-06-26T03:58:00;32.70;99.90
17774;DHT22;9011;33.236;-97.118;2023-06-26T04:00:31;32.60;99.90
17774;DHT22;9011;33.236;-97.118;2023-06-26T04:03:00;32.50;99.90
17774;DHT22;9011;33.236;-97.118;2023-06-26T04:05:29;32.40;99.90
17774;DHT22;9011;33.236;-97.118;2023-06-26T04:07:57;32.40;99.90
17774;DHT22;9011;33.236;-97.118;2023-06-26T04:10:26;32.40;99.90
17774;DHT22;9011;33.236;-97.118;2023-06-26T04:12:54;32.20;99.90
17774;DHT22;9011;33.236;-97.118;2023-06-26T04:15:23;32.20;99.90
17774;DHT22;9011;33.236;-97.118;2023-06-26T04:17:53;32.20;99.90
17774;DHT22;9011;33.236;-97.118;2023-06-26T04:20:21;32.20;99.90
17774;DHT22;9011;33.236;-97.118;2023-06-26T04:22:49;32.10;99.90
17774;DHT22;9011;33.236;-97.118;2023-06-26T04:25:18;32.10;99.90
17774;DHT22;9011;33.236;-97.118;2023-06-26T04:27:46;32.10;99.90
17774;DHT22;9011;33.236;-97.118;2023-06-26T04:30:15;32.00;99.90
17774;DHT22;9011;33.236;-97.118;2023-06-26T04:32:44;32.00;99.90
17774;DHT22;9011;33.236;-97.118;2023-06-26T04:35:13;32.00;99.90
17774;DHT22;9011;33.236;-97.118;2023-06-26T04:37:42;32.10;99.90
17774;DHT22;9011;33.236;-97.118;2023-06-26T04:40:10;32.00;99.90
17774;DHT22;9011;33.236;-97.118;2023-06-26T04:42:39;32.00;99.90
17774;DHT22;9011;33.236;-97.118;2023-06-26T04:45:08;31.90;99.90
17774;DHT22;9011;33.236;-97.118;2023-06-26T04:47:36;31.80;99.90
17774;DHT22;9011;33.236;-97.118;2023-06-26T04:50:06;31.80;99.90
17774;DHT22;9011;33.236;-97.118;2023-06-26T04:52:37;31.80;99.90
17774;DHT22;9011;33.236;-97.118;2023-06-26T04:55:06;31.80;99.90
17774;DHT22;9011;33.236;-97.118;2023-06-26T04:57:34;31.70;99.90
17774;DHT22;9011;33.236;-97.118;2023-06-26T05:00:03;31.70;99.90
17774;DHT22;9011;33.236;-97.118;2023-06-26T05:02:36;31.70;99.90
17774;DHT22;9011;33.236;-97.118;2023-06-26T05:05:05;31.50;99.90
17774;DHT22;9011;33.236;-97.118;2023-06-26T05:07:33;31.60;99.90
17774;DHT22;9011;33.236;-97.118;2023-06-26T05:10:04;31.50;99.90
17774;DHT22;9011;33.236;-97.118;2023-06-26T05:12:32;31.60;99.90
17774;DHT22;9011;33.236;-97.118;2023-06-26T05:15:01;31.50;99.90
17774;DHT22;9011;33.236;-97.118;2023-06-26T05:17:29;31.50;99.90
17774;DHT22;9011;33.236;-97.118;2023-06-26T05:19:57;31.40;99.90
17774;DHT22;9011;33.236;-97.118;2023-06-26T05:22:26;31.40;99.90
17774;DHT22;9011;33.236;-97.118;2023-06-26T05:24:55;31.30;99.90
17774;DHT22;9011;33.236;-97.118;2023-06-26T05:27:27;31.30;99.90
17774;DHT22;9011;33.236;-97.118;2023-06-26T05:29:56;31.30;99.90
17774;DHT22;9011;33.236;-97.118;2023-06-26T05:32:25;31.30;99.90
17774;DHT22;9011;33.236;-97.118;2023-06-26T05:34:55;31.20;99.90
17774;DHT22;9011;33.236;-97.118;2023-06-26T05:37:25;31.20;99.90
17774;DHT22;9011;33.236;-97.118;2023-06-26T05:39:55;31.10;99.90
17774;DHT22;9011;33.236;-97.118;2023-06-26T05:42:23;31.10;99.90
17774;DHT22;9011;33.236;-97.118;2023-06-26T05:44:53;31.10;99.90
17774;DHT22;9011;33.236;-97.118;2023-06-26T05:47:22;31.20;99.90
17774;DHT22;9011;33.236;-97.118;2023-06-26T05:49:50;31.10;99.90
17774;DHT22;9011;33.236;-97.118;2023-06-26T05:52:19;31.10;99.90
17774;DHT22;9011;33.236;-97.118;2023-06-26T05:54:48;31.10;99.90
17774;DHT22;9011;33.236;-97.118;2023-06-26T05:57:17;31.10;99.90
17774;DHT22;9011;33.236;-97.118;2023-06-26T05:59:47;31.00;99.90
17774;DHT22;9011;33.236;-97.118;2023-06-26T06:02:17;31.00;99.90
17774;DHT22;9011;33.236;-97.118;2023-06-26T06:04:45;31.00;99.90
17774;DHT22;9011;33.236;-97.118;2023-06-26T06:07:14;30.90;99.90
17774;DHT22;9011;33.236;-97.118;2023-06-26T06:09:42;30.90;99.90
17774;DHT22;9011;33.236;-97.118;2023-06-26T06:12:11;30.90;99.90
17774;DHT22;9011;33.236;-97.118;2023-06-26T06:14:39;30.80;99.90
17774;DHT22;9011;33.236;-97.118;2023-06-26T06:17:07;30.80;99.90
17774;DHT22;9011;33.236;-97.118;2023-06-26T06:19:38;30.80;99.90
17774;DHT22;9011;33.236;-97.118;2023-06-26T06:22:07;30.80;99.90
17774;DHT22;9011;33.236;-97.118;2023-06-26T06:24:35;30.70;99.90
17774;DHT22;9011;33.236;-97.118;2023-06-26T06:27:04;30.70;99.90
17774;DHT22;9011;33.236;-97.118;2023-06-26T06:29:32;30.70;99.90
17774;DHT22;9011;33.236;-97.118;2023-06-26T06:32:00;30.70;99.90
17774;DHT22;9011;33.236;-97.118;2023-06-26T06:34:29;30.60;99.90
17774;DHT22;9011;33.236;-97.118;2023-06-26T06:36:59;30.60;99.90
17774;DHT22;9011;33.236;-97.118;2023-06-26T06:39:27;30.50;99.90
17774;DHT22;9011;33.236;-97.118;2023-06-26T06:41:56;30.40;99.90
17774;DHT22;9011;33.236;-97.118;2023-06-26T06:44:24;30.40;99.90
17774;DHT22;9011;33.236;-97.118;2023-06-26T06:46:52;30.40;99.90
17774;DHT22;9011;33.236;-97.118;2023-06-26T06:49:21;30.40;99.90
17774;DHT22;9011;33.236;-97.118;2023-06-26T06:51:49;30.30;99.90
17774;DHT22;9011;33.236;-97.118;2023-06-26T06:54:19;30.30;99.90
17774;DHT22;9011;33.236;-97.118;2023-06-26T06:56:47;30.10;99.90
17774;DHT22;9011;33.236;-97.118;2023-06-26T06:59:16;30.10;99.90
17774;DHT22;9011;33.236;-97.118;2023-06-26T07:01:44;30.00;99.90
17774;DHT22;9011;33.236;-97.118;2023-06-26T07:04:12;30.00;99.90
17774;DHT22;9011;33.236;-97.118;2023-06-26T07:06:41;30.00;99.90
17774;DHT22;9011;33.236;-97.118;2023-06-26T07:09:09;30.00;99.90
17774;DHT22;9011;33.236;-97.118;2023-06-26T07:11:39;30.00;99.90
17774;DHT22;9011;33.236;-97.118;2023-06-26T07:14:08;29.80;99.90
17774;DHT22;9011;33.236;-97.118;2023-06-26T07:16:36;29.80;99.90
17774;DHT22;9011;33.236;-97.118;2023-06-26T07:19:04;29.80;99.90
17774;DHT22;9011;33.236;-97.118;2023-06-26T07:21:33;29.80;99.90
17774;DHT22;9011;33.236;-97.118;2023-06-26T07:24:01;29.70;99.90
17774;DHT22;9011;33.236;-97.118;2023-06-26T07:26:29;29.70;99.90
17774;DHT22;9011;33.236;-97.118;2023-06-26T07:28:59;29.60;99.90
17774;DHT22;9011;33.236;-97.118;2023-06-26T07:31:27;29.50;99.90
17774;DHT22;9011;33.236;-97.118;2023-06-26T07:33:56;29.50;99.90
17774;DHT22;9011;33.236;-97.118;2023-06-26T07:36:24;29.40;99.90
17774;DHT22;9011;33.236;-97.118;2023-06-26T07:38:52;29.50;99.90
17774;DHT22;9011;33.236;-97.118;2023-06-26T07:41:21;29.50;99.90
17774;DHT22;9011;33.236;-97.118;2023-06-26T07:43:49;29.50;99.90
17774;DHT22;9011;33.236;-97.118;2023-06-26T07:46:19;29.50;99.90
17774;DHT22;9011;33.236;-97.118;2023-06-26T07:48:47;29.40;99.90
17774;DHT22;9011;33.236;-97.118;2023-06-26T07:51:16;29.40;99.90
17774;DHT22;9011;33.236;-97.118;2023-06-26T07:53:44;29.50;99.90
17774;DHT22;9011;33.236;-97.118;2023-06-26T07:56:12;29.30;99.90
17774;DHT22;9011;33.236;-97.118;2023-06-26T07:58:41;29.20;99.90
17774;DHT22;9011;33.236;-97.118;2023-06-26T08:01:09;29.00;99.90
17774;DHT22;9011;33.236;-97.118;2023-06-26T08:03:39;29.00;99.90
17774;DHT22;9011;33.236;-97.118;2023-06-26T08:06:07;29.00;99.90
17774;DHT22;9011;33.236;-97.118;2023-06-26T08:08:36;29.00;99.90
17774;DHT22;9011;33.236;-97.118;2023-06-26T08:11:04;28.90;99.90
17774;DHT22;9011;33.236;-97.118;2023-06-26T08:13:32;28.90;99.90
17774;DHT22;9011;33.236;-97.118;2023-06-26T08:16:01;28.90;99.90
17774;DHT22;9011;33.236;-97.118;2023-06-26T08:18:29;28.90;99.90
17774;DHT22;9011;33.236;-97.118;2023-06-26T08:20:59;28.90;99.90
17774;DHT22;9011;33.236;-97.118;2023-06-26T08:23:27;28.80;99.90
17774;DHT22;9011;33.236;-97.118;2023-06-26T08:25:56;28.80;99.90
17774;DHT22;9011;33.236;-97.118;2023-06-26T08:28:25;28.80;99.90
17774;DHT22;9011;33.236;-97.118;2023-06-26T08:30:54;28.80;99.90
17774;DHT22;9011;33.236;-97.118;2023-06-26T08:33:22;28.80;99.90
17774;DHT22;9011;33.236;-97.118;2023-06-26T08:35:51;28.60;99.90
17774;DHT22;9011;33.236;-97.118;2023-06-26T08:38:20;28.70;99.90
17774;DHT22;9011;33.236;-97.118;2023-06-26T08:40:49;28.70;99.90
17774;DHT22;9011;33.236;-97.118;2023-06-26T08:43:17;28.60;99.90
17774;DHT22;9011;33.236;-97.118;2023-06-26T08:45:46;28.50;99.90
17774;DHT22;9011;33.236;-97.118;2023-06-26T08:48:17;28.50;99.90
17774;DHT22;9011;33.236;-97.118;2023-06-26T08:50:49;28.50;99.90
17774;DHT22;9011;33.236;-97.118;2023-06-26T08:53:23;28.40;99.90
17774;DHT22;9011;33.236;-97.118;2023-06-26T08:55:58;28.50;99.90
17774;DHT22;9011;33.236;-97.118;2023-06-26T08:58:26;28.40;99.90
17774;DHT22;9011;33.236;-97.118;2023-06-26T09:00:55;28.30;99.90
17774;DHT22;9011;33.236;-97.118;2023-06-26T09:03:24;28.40;99.90
17774;DHT22;9011;33.236;-97.118;2023-06-26T09:05:53;28.30;99.90
17774;DHT22;9011;33.236;-97.118;2023-06-26T09:08:22;28.40;99.90
17774;DHT22;9011;33.236;-97.118;2023-06-26T09:10:52;28.40;99.90
17774;DHT22;9011;33.236;-97.118;2023-06-26T09:13:20;28.40;99.90
17774;DHT22;9011;33.236;-97.118;2023-06-26T09:15:48;28.40;99.90
17774;DHT22;9011;33.236;-97.118;2023-06-26T09:18:18;28.40;99.90
17774;DHT22;9011;33.236;-97.118;2023-06-26T09:20:47;28.40;99.90
17774;DHT22;9011;33.236;-97.118;2023-06-26T09:23:16;28.20;99.90
17774;DHT22;9011;33.236;-97.118;2023-06-26T09:25:47;28.20;99.90
17774;DHT22;9011;33.236;-97.118;2023-06-26T09:28:16;28.20;99.90
17774;DHT22;9011;33.236;-97.118;2023-06-26T09:30:45;28.20;99.90
17774;DHT22;9011;33.236;-97.118;2023-06-26T09:33:14;28.20;99.90
17774;DHT22;9011;33.236;-97.118;2023-06-26T09:35:43;28.10;99.90
17774;DHT22;9011;33.236;-97.118;2023-06-26T09:38:12;28.10;99.90
17774;DHT22;9011;33.236;-97.118;2023-06-26T09:40:41;28.10;99.90
17774;DHT22;9011;33.236;-97.118;2023-06-26T09:43:14;28.00;99.90
17774;DHT22;9011;33.236;-97.118;2023-06-26T09:45:42;28.00;99.90
17774;DHT22;9011;33.236;-97.118;2023-06-26T09:48:14;27.90;99.90
17774;DHT22;9011;33.236;-97.118;2023-06-26T09:50:43;27.90;99.90
17774;DHT22;9011;33.236;-97.118;2023-06-26T09:53:13;27.80;99.90
17774;DHT22;9011;33.236;-97.118;2023-06-26T09:55:42;27.80;99.90
17774;DHT22;9011;33.236;-97.118;2023-06-26T09:58:13;27.80;99.90
17774;DHT22;9011;33.236;-97.118;2023-06-26T10:00:41;27.80;99.90
17774;DHT22;9011;33.236;-97.118;2023-06-26T10:03:11;27.80;99.90
17774;DHT22;9011;33.236;-97.118;2023-06-26T10:05:40;27.80;99.90
17774;DHT22;9011;33.236;-97.118;2023-06-26T10:08:09;27.80;99.90
17774;DHT22;9011;33.236;-97.118;2023-06-26T10:10:41;27.70;99.90
17774;DHT22;9011;33.236;-97.118;2023-06-26T10:13:23;27.60;99.90
17774;DHT22;9011;33.236;-97.118;2023-06-26T10:15:54;27.50;99.90
17774;DHT22;9011;33.236;-97.118;2023-06-26T10:18:25;27.50;99.90
17774;DHT22;9011;33.236;-97.118;2023-06-26T10:20:56;27.50;99.90
17774;DHT22;9011;33.236;-97.118;2023-06-26T10:23:27;27.50;99.90
17774;DHT22;9011;33.236;-97.118;2023-06-26T10:25:59;27.40;99.90
17774;DHT22;9011;33.236;-97.118;2023-06-26T10:28:32;27.40;99.90
17774;DHT22;9011;33.236;-97.118;2023-06-26T10:31:02;27.30;99.90
17774;DHT22;9011;33.236;-97.118;2023-06-26T10:33:33;27.40;99.90
17774;DHT22;9011;33.236;-97.118;2023-06-26T10:36:14;27.40;99.90
17774;DHT22;9011;33.236;-97.118;2023-06-26T10:38:49;27.40;99.90
17774;DHT22;9011;33.236;-97.118;2023-06-26T10:41:21;27.40;99.90
17774;DHT22;9011;33.236;-97.118;2023-06-26T10:44:05;27.40;99.90
17774;DHT22;9011;33.236;-97.118;2023-06-26T10:46:34;27.40;99.90
17774;DHT22;9011;33.236;-97.118;2023-06-26T10:49:16;27.40;99.90
17774;DHT22;9011;33.236;-97.118;2023-06-26T10:51:48;27.30;99.90
17774;DHT22;9011;33.236;-97.118;2023-06-26T10:54:18;27.40;99.90
17774;DHT22;9011;33.236;-97.118;2023-06-26T10:56:47;27.30;99.90
17774;DHT22;9011;33.236;-97.118;2023-06-26T10:59:19;27.30;99.90
17774;DHT22;9011;33.236;-97.118;2023-06-26T11:01:56;27.30;99.90
17774;DHT22;9011;33.236;-97.118;2023-06-26T11:04:38;27.30;99.90
17774;DHT22;9011;33.236;-97.118;2023-06-26T11:07:17;27.30;99.90
17774;DHT22;9011;33.236;-97.118;2023-06-26T11:09:56;27.30;99.90
17774;DHT22;9011;33.236;-97.118;2023-06-26T11:12:37;27.30;99.90
17774;DHT22;9011;33.236;-97.118;2023-06-26T11:15:10;27.20;99.90
17774;DHT22;9011;33.236;-97.118;2023-06-26T11:17:40;27.10;99.90
17774;DHT22;9011;33.236;-97.118;2023-06-26T11:20:12;27.10;99.90
17774;DHT22;9011;33.236;-97.118;2023-06-26T11:22:41;27.00;99.90
17774;DHT22;9011;33.236;-97.118;2023-06-26T11:25:10;26.90;99.90
17774;DHT22;9011;33.236;-97.118;2023-06-26T11:27:39;26.80;99.90
17774;DHT22;9011;33.236;-97.118;2023-06-26T11:30:11;26.80;99.90
17774;DHT22;9011;33.236;-97.118;2023-06-26T11:32:41;26.90;99.90
17774;DHT22;9011;33.236;-97.118;2023-06-26T11:35:10;26.90;99.90
17774;DHT22;9011;33.236;-97.118;2023-06-26T11:37:39;27.00;99.90
17774;DHT22;9011;33.236;-97.118;2023-06-26T11:40:28;27.00;99.90
17774;DHT22;9011;33.236;-97.118;2023-06-26T11:42:58;27.00;99.90
17774;DHT22;9011;33.236;-97.118;2023-06-26T11:45:32;27.00;99.90
17774;DHT22;9011;33.236;-97.118;2023-06-26T11:48:01;27.00;99.90
17774;DHT22;9011;33.236;-97.118;2023-06-26T11:50:30;27.00;99.90
17774;DHT22;9011;33.236;-97.118;2023-06-26T11:52:58;27.00;99.90
17774;DHT22;9011;33.236;-97.118;2023-06-26T11:55:39;27.10;99.90
17774;DHT22;9011;33.236;-97.118;2023-06-26T11:58:08;27.10;99.90
17774;DHT22;9011;33.236;-97.118;2023-06-26T12:00:42;27.10;99.90
17774;DHT22;9011;33.236;-97.118;2023-06-26T12:03:11;27.10;99.90
17774;DHT22;9011;33.236;-97.118;2023-06-26T12:05:40;27.10;99.90
17774;DHT22;9011;33.236;-97.118;2023-06-26T12:08:11;27.20;99.90
17774;DHT22;9011;33.236;-97.118;2023-06-26T12:10:40;27.30;99.90
17774;DHT22;9011;33.236;-97.118;2023-06-26T12:13:09;27.30;99.90
17774;DHT22;9011;33.236;-97.118;2023-06-26T12:15:37;27.30;99.90
17774;DHT22;9011;33.236;-97.118;2023-06-26T12:18:10;27.40;99.90
17774;DHT22;9011;33.236;-97.118;2023-06-26T12:20:40;27.40;99.90
17774;DHT22;9011;33.236;-97.118;2023-06-26T12:23:13;27.50;99.90
17774;DHT22;9011;33.236;-97.118;2023-06-26T12:25:42;27.60;99.90
17774;DHT22;9011;33.236;-97.118;2023-06-26T12:28:17;27.70;99.90
17774;DHT22;9011;33.236;-97.118;2023-06-26T12:31:12;27.70;99.90
17774;DHT22;9011;33.236;-97.118;2023-06-26T12:33:42;27.80;99.90
17774;DHT22;9011;33.236;-97.118;2023-06-26T12:36:12;27.80;99.90
17774;DHT22;9011;33.236;-97.118;2023-06-26T12:38:41;27.90;99.90
17774;DHT22;9011;33.236;-97.118;2023-06-26T12:41:12;27.90;99.90
17774;DHT22;9011;33.236;-97.118;2023-06-26T12:43:42;28.00;99.90
17774;DHT22;9011;33.236;-97.118;2023-06-26T12:46:10;28.00;99.90
17774;DHT22;9011;33.236;-97.118;2023-06-26T12:48:41;28.10;99.90
17774;DHT22;9011;33.236;-97.118;2023-06-26T12:51:13;28.20;99.90
17774;DHT22;9011;33.236;-97.118;2023-06-26T12:53:43;28.20;99.90
17774;DHT22;9011;33.236;-97.118;2023-06-26T12:56:11;28.30;99.90
17774;DHT22;9011;33.236;-97.118;2023-06-26T12:58:40;28.40;99.90
17774;DHT22;9011;33.236;-97.118;2023-06-26T13:01:08;28.40;99.90
17774;DHT22;9011;33.236;-97.118;2023-06-26T13:03:42;28.40;99.90
17774;DHT22;9011;33.236;-97.118;2023-06-26T13:06:11;28.40;99.90
17774;DHT22;9011;33.236;-97.118;2023-06-26T13:08:41;28.50;99.90
17774;DHT22;9011;33.236;-97.118;2023-06-26T13:11:09;28.60;99.90
17774;DHT22;9011;33.236;-97.118;2023-06-26T13:13:38;28.60;99.90
17774;DHT22;9011;33.236;-97.118;2023-06-26T13:16:06;28.60;99.90
17774;DHT22;9011;33.236;-97.118;2023-06-26T13:18:35;28.70;99.90
17774;DHT22;9011;33.236;-97.118;2023-06-26T13:21:05;28.80;99.90
17774;DHT22;9011;33.236;-97.118;2023-06-26T13:23:33;28.90;99.90
17774;DHT22;9011;33.236;-97.118;2023-06-26T13:26:01;28.90;99.90
17774;DHT22;9011;33.236;-97.118;2023-06-26T13:28:30;29.00;99.90
17774;DHT22;9011;33.236;-97.118;2023-06-26T13:30:59;29.00;99.90
17774;DHT22;9011;33.236;-97.118;2023-06-26T13:33:27;29.20;99.90
17774;DHT22;9011;33.236;-97.118;2023-06-26T13:35:56;29.30;99.90
17774;DHT22;9011;33.236;-97.118;2023-06-26T13:38:26;29.30;99.90
17774;DHT22;9011;33.236;-97.118;2023-06-26T13:40:55;29.40;99.90
17774;DHT22;9011;33.236;-97.118;2023-06-26T13:43:26;29.40;99.90
17774;DHT22;9011;33.236;-97.118;2023-06-26T13:45:55;29.50;99.90
17774;DHT22;9011;33.236;-97.118;2023-06-26T13:48:24;29.50;99.90
17774;DHT22;9011;33.236;-97.118;2023-06-26T13:50:52;29.60;99.90
17774;DHT22;9011;33.236;-97.118;2023-06-26T13:53:21;29.70;99.90
17774;DHT22;9011;33.236;-97.118;2023-06-26T13:55:51;29.80;99.90
17774;DHT22;9011;33.236;-97.118;2023-06-26T13:58:19;29.80;99.90
17774;DHT22;9011;33.236;-97.118;2023-06-26T14:00:49;30.00;99.90
17774;DHT22;9011;33.236;-97.118;2023-06-26T14:03:17;30.10;99.90
17774;DHT22;9011;33.236;-97.118;2023-06-26T14:05:45;30.20;99.90
17774;DHT22;9011;33.236;-97.118;2023-06-26T14:08:14;30.30;99.90
17774;DHT22;9011;33.236;-97.118;2023-06-26T14:10:42;30.30;99.90
17774;DHT22;9011;33.236;-97.118;2023-06-26T14:13:12;30.20;99.90
17774;DHT22;9011;33.236;-97.118;2023-06-26T14:15:42;30.30;99.90
17774;DHT22;9011;33.236;-97.118;2023-06-26T14:18:10;30.30;99.90
17774;DHT22;9011;33.236;-97.118;2023-06-26T14:20:40;30.40;99.90
17774;DHT22;9011;33.236;-97.118;2023-06-26T14:23:08;30.50;99.90
17774;DHT22;9011;33.236;-97.118;2023-06-26T14:25:36;30.50;99.90
17774;DHT22;9011;33.236;-97.118;2023-06-26T14:28:04;30.60;99.90
17774;DHT22;9011;33.236;-97.118;2023-06-26T14:30:35;30.80;99.90
17774;DHT22;9011;33.236;-97.118;2023-06-26T14:33:03;30.90;99.90
17774;DHT22;9011;33.236;-97.118;2023-06-26T14:35:31;30.90;99.90
17774;DHT22;9011;33.236;-97.118;2023-06-26T14:38:00;30.90;99.90
17774;DHT22;9011;33.236;-97.118;2023-06-26T14:40:28;30.90;99.90
17774;DHT22;9011;33.236;-97.118;2023-06-26T14:42:57;30.90;99.90
17774;DHT22;9011;33.236;-97.118;2023-06-26T14:45:26;31.10;99.90
17774;DHT22;9011;33.236;-97.118;2023-06-26T14:47:56;31.10;99.90
17774;DHT22;9011;33.236;-97.118;2023-06-26T14:50:24;31.20;99.90
17774;DHT22;9011;33.236;-97.118;2023-06-26T14:52:52;31.30;99.90
17774;DHT22;9011;33.236;-97.118;2023-06-26T14:55:21;31.30;99.90
17774;DHT22;9011;33.236;-97.118;2023-06-26T14:57:49;31.40;99.90
17774;DHT22;9011;33.236;-97.118;2023-06-26T15:00:19;31.60;99.90
17774;DHT22;9011;33.236;-97.118;2023-06-26T15:02:48;31.80;99.90
17774;DHT22;9011;33.236;-97.118;2023-06-26T15:05:21;31.90;99.90
17774;DHT22;9011;33.236;-97.118;2023-06-26T15:07:49;31.90;99.90
17774;DHT22;9011;33.236;-97.118;2023-06-26T15:10:17;32.00;99.90
17774;DHT22;9011;33.236;-97.118;2023-06-26T15:12:46;32.10;99.90
17774;DHT22;9011;33.236;-97.118;2023-06-26T15:15:14;32.20;99.90
17774;DHT22;9011;33.236;-97.118;2023-06-26T15:17:43;32.30;99.90
17774;DHT22;9011;33.236;-97.118;2023-06-26T15:20:12;32.30;99.90
17774;DHT22;9011;33.236;-97.118;2023-06-26T15:22:42;32.00;99.90
17774;DHT22;9011;33.236;-97.118;2023-06-26T15:25:11;32.20;99.90
17774;DHT22;9011;33.236;-97.118;2023-06-26T15:27:39;32.10;99.90
17774;DHT22;9011;33.236;-97.118;2023-06-26T15:30:08;32.20;99.90